Time;durP1;ratioP1;P1;durP2;ratioP2;P2;SDS_P1;SDS_P2;PMS_P1;PMS_P2;Temp;Humidity;BMP_temperature;BMP_pressure;BME280_temperature;BME280_humidity;BME280_pressure;Samples;Min_cycle;Max_cycle;Signal;HPM_P1;HPM_P2
2021/11/09 00:02:08;;;;;;;12.40;9.53;;;9.60;1.00;;;;;;4967511;28;21409;-82
2021/11/09 00:04:38;;;;;;;14.13;9.55;;;9.70;1.00;;;;;;4977494;28;20512;-85
2021/11/09 00:07:10;;;;;;;15.27;10.20;;;9.60;1.00;;;;;;4981473;28;20233;-81
2021/11/09 00:12:20;;;;;;;13.27;10.03;;;9.70;1.00;;;;;;4971132;28;20471;-82
2021/11/09 00:14:47;;;;;;;14.17;11.30;;;9.60;1.00;;;;;;4968857;28;20907;-82
2021/11/09 00:17:15;;;;;;;17.80;10.93;;;9.60;1.00;;;;;;4974541;28;20483;-83
2021/11/09 00:19:42;;;;;;;15.80;10.63;;;9.60;1.00;;;;;;4977327;28;20609;-84
2021/11/09 00:22:08;;;;;;;15.97;10.90;;;9.70;1.00;;;;;;4994388;28;20432;-83
2021/11/09 00:24:35;;;;;;;14.77;11.03;;;9.60;1.00;;;;;;4978984;28;20503;-83
2021/11/09 00:27:03;;;;;;;13.10;10.63;;;9.70;1.00;;;;;;4974494;28;21204;-82
2021/11/09 00:29:32;;;;;;;15.03;10.80;;;9.60;1.00;;;;;;4973664;28;20456;-84
2021/11/09 00:31:59;;;;;;;14.73;10.70;;;9.70;1.00;;;;;;4972288;28;20768;-82
2021/11/09 00:34:26;;;;;;;19.93;12.60;;;9.70;1.00;;;;;;4972719;28;20435;-83
2021/11/09 00:36:52;;;;;;;16.50;11.67;;;9.60;1.00;;;;;;4960574;28;20775;-84
2021/11/09 00:39:19;;;;;;;16.60;11.70;;;9.60;1.00;;;;;;4972000;28;21902;-83
2021/11/09 00:41:46;;;;;;;16.73;11.70;;;9.60;1.00;;;;;;4972484;28;20467;-83
2021/11/09 00:44:14;;;;;;;16.33;11.30;;;9.60;1.00;;;;;;4972852;28;20240;-82
2021/11/09 00:46:41;;;;;;;14.17;10.47;;;9.60;1.00;;;;;;4979378;28;20451;-83
2021/11/09 00:49:08;;;;;;;13.90;10.70;;;9.50;1.00;;;;;;4984993;28;20456;-83
2021/11/09 00:51:35;;;;;;;13.37;10.43;;;9.50;1.00;;;;;;4972241;28;20535;-84
2021/11/09 00:54:02;;;;;;;16.00;11.23;;;9.50;1.00;;;;;;4974163;28;20428;-83
2021/11/09 00:56:30;;;;;;;16.37;11.30;;;9.50;1.00;;;;;;4957780;28;20485;-83
2021/11/09 00:58:57;;;;;;;13.77;11.17;;;9.50;1.00;;;;;;4954843;28;20414;-83
2021/11/09 01:01:25;;;;;;;14.33;11.20;;;9.50;1.00;;;;;;4976737;28;20529;-84
2021/11/09 01:03:52;;;;;;;13.77;10.63;;;9.60;1.00;;;;;;4996513;28;20414;-83
2021/11/09 01:06:19;;;;;;;14.23;9.53;;;9.60;1.00;;;;;;4992200;28;20424;-82
2021/11/09 01:08:46;;;;;;;15.20;11.10;;;9.60;1.00;;;;;;4979198;28;20436;-83
2021/11/09 01:11:13;;;;;;;11.00;9.63;;;9.60;1.00;;;;;;4972646;28;20460;-85
2021/11/09 01:13:40;;;;;;;16.97;10.97;;;9.60;1.00;;;;;;4982895;28;20454;-82
2021/11/09 01:16:07;;;;;;;12.03;10.70;;;9.60;1.00;;;;;;4975461;28;20462;-83
2021/11/09 01:18:37;;;;;;;13.07;10.70;;;9.70;1.00;;;;;;4974013;28;20480;-85
2021/11/09 01:21:05;;;;;;;16.33;10.40;;;9.70;1.00;;;;;;4968661;28;20475;-83
2021/11/09 01:23:33;;;;;;;16.30;11.83;;;9.60;1.00;;;;;;4975845;28;20451;-83
2021/11/09 01:26:00;;;;;;;13.97;10.97;;;9.60;1.00;;;;;;4980233;28;20455;-83
2021/11/09 01:28:27;;;;;;;13.23;10.50;;;9.60;1.00;;;;;;4980410;28;20450;-83
2021/11/09 01:30:54;;;;;;;13.67;10.70;;;9.70;1.00;;;;;;4979809;28;20982;-82
2021/11/09 01:33:22;;;;;;;13.93;11.20;;;9.70;1.00;;;;;;4978824;28;20454;-83
2021/11/09 01:35:50;;;;;;;11.60;10.13;;;9.60;1.00;;;;;;4967598;28;20451;-83
2021/11/09 01:38:17;;;;;;;18.20;11.23;;;9.60;1.00;;;;;;4973831;28;20527;-84
2021/11/09 01:40:44;;;;;;;11.50;9.37;;;9.60;1.00;;;;;;4957198;28;20288;-84
2021/11/09 01:43:11;;;;;;;12.83;10.80;;;9.60;1.00;;;;;;4967884;28;20439;-83
2021/11/09 01:45:38;;;;;;;14.70;11.53;;;9.60;1.00;;;;;;4996904;28;21405;-82
2021/11/09 01:48:06;;;;;;;15.33;10.30;;;9.60;1.00;;;;;;4992649;28;20581;-83
2021/11/09 01:50:36;;;;;;;13.90;10.07;;;9.60;1.00;;;;;;4972324;28;20581;-84
2021/11/09 01:53:05;;;;;;;12.53;10.27;;;9.60;1.00;;;;;;4991281;28;20448;-83
2021/11/09 01:55:33;;;;;;;13.63;10.37;;;9.60;1.00;;;;;;4991191;28;20481;-83
2021/11/09 01:58:01;;;;;;;14.20;10.10;;;9.70;1.00;;;;;;4997455;28;21250;-83
2021/11/09 02:00:31;;;;;;;14.43;9.63;;;9.70;1.00;;;;;;5008557;28;20462;-82
2021/11/09 02:02:58;;;;;;;17.43;9.50;;;9.70;1.00;;;;;;4982440;28;22019;-82
2021/11/09 02:05:28;;;;;;;11.60;8.53;;;9.70;1.00;;;;;;4989700;28;20467;-82
2021/11/09 02:07:57;;;;;;;11.27;8.97;;;9.70;1.00;;;;;;4970802;28;20487;-81
2021/11/09 02:10:28;;;;;;;14.30;8.90;;;9.70;1.00;;;;;;4983174;28;20519;-82
2021/11/09 02:12:56;;;;;;;15.33;10.23;;;9.70;1.00;;;;;;4966516;28;20447;-82
2021/11/09 02:15:23;;;;;;;10.50;8.93;;;9.60;1.00;;;;;;4973566;28;20467;-81
2021/11/09 02:17:51;;;;;;;13.87;9.93;;;9.60;1.00;;;;;;4983795;28;20463;-81
2021/11/09 02:20:20;;;;;;;13.10;8.50;;;9.60;1.00;;;;;;4979024;28;20455;-81
2021/11/09 02:22:49;;;;;;;10.83;8.33;;;9.60;1.00;;;;;;4972405;28;20415;-81
2021/11/09 02:25:17;;;;;;;10.63;7.93;;;9.60;1.00;;;;;;4960522;28;20451;-82
2021/11/09 02:27:44;;;;;;;11.23;8.43;;;9.60;1.00;;;;;;4973659;28;20465;-83
2021/11/09 02:30:13;;;;;;;11.77;9.50;;;9.50;1.00;;;;;;4977745;28;20475;-83
2021/11/09 02:32:40;;;;;;;12.50;8.23;;;9.60;1.00;;;;;;4980049;28;20447;-81
2021/11/09 02:35:09;;;;;;;10.50;8.43;;;9.50;1.00;;;;;;5002017;28;20422;-81
2021/11/09 02:37:37;;;;;;;10.93;7.30;;;9.50;1.00;;;;;;4998706;28;20417;-82
2021/11/09 02:40:06;;;;;;;8.93;6.90;;;9.50;1.00;;;;;;4998065;28;20812;-82
2021/11/09 02:42:35;;;;;;;10.20;7.70;;;9.50;1.00;;;;;;4992397;28;20491;-81
2021/11/09 02:45:08;;;;;;;9.30;8.20;;;9.40;1.00;;;;;;4971293;28;20283;-83
2021/11/09 02:47:43;;;;;;;9.37;6.80;;;9.40;1.00;;;;;;4978895;28;21318;-83
2021/11/09 02:50:12;;;;;;;8.57;6.97;;;9.40;1.00;;;;;;4971301;28;20505;-82
2021/11/09 02:52:46;;;;;;;10.03;7.03;;;9.50;1.00;;;;;;4979791;28;20971;-82
2021/11/09 02:55:14;;;;;;;7.70;6.60;;;9.40;1.00;;;;;;4983877;28;20550;-83
2021/11/09 02:57:47;;;;;;;11.10;7.83;;;9.40;1.00;;;;;;4981459;28;20649;-82
2021/11/09 03:00:22;;;;;;;10.23;7.93;;;9.40;1.00;;;;;;4969877;28;20478;-83
2021/11/09 03:02:52;;;;;;;8.43;7.00;;;9.40;1.00;;;;;;4969744;28;20470;-83
2021/11/09 03:05:24;;;;;;;13.37;8.70;;;9.40;1.00;;;;;;4974436;28;20622;-83
2021/11/09 03:07:54;;;;;;;10.83;8.90;;;9.40;1.00;;;;;;4982658;28;20490;-83
2021/11/09 03:10:28;;;;;;;11.70;8.10;;;9.40;1.00;;;;;;4979057;28;20542;-83
2021/11/09 03:12:55;;;;;;;12.68;9.45;;;9.40;1.00;;;;;;4954840;28;20466;-83
2021/11/09 03:15:26;;;;;;;11.70;9.17;;;9.40;1.00;;;;;;4974043;28;20334;-82
2021/11/09 03:17:56;;;;;;;10.90;7.70;;;9.40;1.00;;;;;;4977136;28;20486;-82
2021/11/09 03:20:28;;;;;;;11.73;9.80;;;9.40;1.00;;;;;;4980445;28;20493;-83
2021/11/09 03:40:13;;;;;;;12.40;9.67;;;9.30;1.00;;;;;;5097427;27;20769;-82
2021/11/09 03:45:28;;;;;;;14.93;9.93;;;9.40;1.00;;;;;;5086469;27;20239;-83
2021/11/09 03:48:02;;;;;;;13.00;10.20;;;9.40;1.00;;;;;;5081511;28;20466;-83
2021/11/09 03:50:30;;;;;;;16.70;10.70;;;9.50;1.00;;;;;;5080783;28;20435;-84
2021/11/09 03:52:59;;;;;;;16.07;11.93;;;9.50;1.00;;;;;;5100117;28;20412;-82
2021/11/09 03:55:37;;;;;;;15.83;10.50;;;9.50;1.00;;;;;;5078449;28;20470;-82
2021/11/09 03:58:10;;;;;;;16.07;11.27;;;9.50;1.00;;;;;;5065165;28;20469;-83
2021/11/09 04:00:43;;;;;;;13.90;10.53;;;9.50;1.00;;;;;;5069362;28;20458;-82
2021/11/09 04:03:17;;;;;;;15.20;11.47;;;9.50;1.00;;;;;;5077206;28;20528;-83
2021/11/09 04:05:46;;;;;;;17.20;11.55;;;9.40;1.00;;;;;;5070631;28;20578;-82
2021/11/09 04:08:18;;;;;;;16.33;10.83;;;9.40;1.00;;;;;;5069444;28;20721;-82
2021/11/09 04:10:53;;;;;;;17.40;11.02;;;9.40;1.00;;;;;;5060893;28;20460;-82
2021/11/09 04:13:32;;;;;;;14.15;10.77;;;9.40;1.00;;;;;;5065943;28;20232;-82
2021/11/09 04:16:27;;;;;;;12.60;10.38;;;9.30;1.00;;;;;;5069172;28;20224;-82
2021/11/09 04:18:59;;;;;;;18.23;12.88;;;9.30;1.00;;;;;;5071389;28;20228;-83
2021/11/09 04:21:44;;;;;;;15.15;11.07;;;9.30;1.00;;;;;;5071871;28;20238;-84
2021/11/09 04:24:30;;;;;;;15.55;11.40;;;9.30;1.00;;;;;;5092633;27;20242;-83
2021/11/09 04:27:15;;;;;;;13.60;10.88;;;9.30;1.00;;;;;;5088522;28;20261;-82
2021/11/09 04:30:02;;;;;;;15.32;11.90;;;9.30;1.00;;;;;;5071731;28;20225;-83
2021/11/09 04:35:41;;;;;;;27.10;13.80;;;9.30;1.00;;;;;;5039064;28;20458;-83
2021/11/09 05:02:53;;;;;;;15.00;11.63;;;9.30;1.00;;;;;;5051954;28;20504;-83
2021/11/09 05:08:23;;;;;;;16.27;11.90;;;9.30;1.00;;;;;;5061336;28;21503;-82
2021/11/09 05:10:52;;;;;;;19.20;12.40;;;9.30;1.00;;;;;;5053980;28;20224;-83
2021/11/09 05:13:19;;;;;;;16.17;11.77;;;9.30;1.00;;;;;;5050565;28;21033;-82
2021/11/09 05:15:47;;;;;;;16.23;12.25;;;9.30;1.00;;;;;;5053651;28;20461;-83
2021/11/09 05:18:16;;;;;;;18.07;12.00;;;9.30;1.00;;;;;;5058854;28;20284;-83
2021/11/09 05:20:43;;;;;;;14.50;11.47;;;9.40;1.00;;;;;;5047974;28;20430;-83
2021/11/09 05:23:12;;;;;;;19.90;12.90;;;9.40;1.00;;;;;;5048837;28;20451;-82
2021/11/09 05:25:38;;;;;;;22.35;12.73;;;9.40;1.00;;;;;;5049055;28;20461;-82
2021/11/09 05:28:08;;;;;;;18.40;12.18;;;9.40;1.00;;;;;;5051794;28;20279;-82
2021/11/09 05:30:36;;;;;;;15.93;11.73;;;9.40;1.00;;;;;;5056885;28;20411;-82
2021/11/09 05:33:06;;;;;;;20.07;13.90;;;9.30;1.00;;;;;;5058185;28;21065;-82
2021/11/09 05:35:34;;;;;;;18.67;12.63;;;9.30;1.00;;;;;;5054065;28;21939;-83
2021/11/09 05:38:02;;;;;;;23.40;13.47;;;9.30;1.00;;;;;;5057954;28;20229;-82
2021/11/09 05:40:33;;;;;;;21.60;14.50;;;9.30;1.00;;;;;;5064547;28;20420;-82
2021/11/09 05:43:01;;;;;;;20.07;15.37;;;9.30;1.00;;;;;;5058822;28;20237;-83
2021/11/09 05:45:29;;;;;;;25.02;14.55;;;9.40;1.00;;;;;;5057441;28;20467;-82
2021/11/09 05:47:56;;;;;;;21.80;13.60;;;9.40;1.00;;;;;;5062188;28;20300;-83
2021/11/09 05:50:25;;;;;;;21.77;13.90;;;9.40;1.00;;;;;;5076530;28;20420;-82
2021/11/09 05:52:51;;;;;;;20.00;12.87;;;9.40;1.00;;;;;;5079507;28;20437;-82
2021/11/09 05:55:19;;;;;;;19.83;13.63;;;9.40;1.00;;;;;;5066234;28;22403;-82
2021/11/09 05:57:46;;;;;;;20.53;13.77;;;9.30;1.00;;;;;;5061959;28;20222;-83
2021/11/09 06:00:15;;;;;;;20.13;14.60;;;9.30;1.00;;;;;;5061142;28;20485;-82
2021/11/09 06:02:42;;;;;;;23.55;14.52;;;9.40;1.00;;;;;;5051143;28;20430;-83
2021/11/09 06:05:10;;;;;;;20.80;14.40;;;9.40;1.00;;;;;;5059710;28;20230;-84
2021/11/09 06:07:38;;;;;;;16.90;13.37;;;9.50;1.00;;;;;;5068958;28;20224;-83
2021/11/09 06:10:06;;;;;;;22.80;14.27;;;9.50;1.00;;;;;;5077658;28;21453;-83
2021/11/09 06:12:33;;;;;;;26.17;15.40;;;9.50;1.00;;;;;;5093286;27;20492;-83
2021/11/09 06:15:00;;;;;;;19.73;14.70;;;9.50;1.00;;;;;;5064552;28;20244;-85
2021/11/09 06:17:27;;;;;;;22.95;15.15;;;9.50;1.00;;;;;;5065958;28;20299;-82
2021/11/09 06:19:54;;;;;;;21.83;15.10;;;9.50;1.00;;;;;;5060473;28;20478;-84
2021/11/09 06:22:22;;;;;;;20.03;14.07;;;9.50;1.00;;;;;;5057977;28;20443;-83
2021/11/09 06:24:50;;;;;;;23.05;15.00;;;9.50;1.00;;;;;;5062694;28;20455;-83
2021/11/09 06:27:17;;;;;;;20.30;13.95;;;9.50;1.00;;;;;;5060426;28;20948;-83
2021/11/09 06:29:44;;;;;;;36.17;20.03;;;9.40;1.00;;;;;;5065169;28;21464;-83
2021/11/09 06:32:11;;;;;;;19.23;13.57;;;9.50;1.00;;;;;;5054766;28;20868;-86
2021/11/09 06:34:38;;;;;;;19.33;13.33;;;9.40;1.00;;;;;;5053668;28;20460;-80
2021/11/09 06:37:04;;;;;;;20.20;13.43;;;9.40;1.00;;;;;;5049090;28;20449;-82
2021/11/09 06:39:31;;;;;;;25.87;14.43;;;9.40;1.00;;;;;;5043156;28;21074;-81
2021/11/09 06:41:59;;;;;;;18.93;12.97;;;9.40;1.00;;;;;;5054865;28;20446;-81
2021/11/09 06:44:26;;;;;;;21.17;14.43;;;9.40;1.00;;;;;;5049631;28;20438;-81
2021/11/09 06:46:53;;;;;;;19.40;14.30;;;9.50;1.00;;;;;;5053508;28;20230;-82
2021/11/09 06:49:19;;;;;;;19.60;14.47;;;9.50;1.00;;;;;;5052295;28;20546;-83
2021/11/09 06:51:46;;;;;;;21.97;13.47;;;9.50;1.00;;;;;;5054489;28;20867;-83
2021/11/09 06:54:13;;;;;;;18.08;13.85;;;9.60;1.00;;;;;;5062843;28;20459;-81
2021/11/09 06:56:40;;;;;;;16.07;12.47;;;9.60;1.00;;;;;;5054217;28;20240;-79
2021/11/09 06:59:09;;;;;;;21.50;15.60;;;9.70;1.00;;;;;;5054973;28;20522;-79
2021/11/09 07:01:36;;;;;;;19.27;12.90;;;9.80;1.00;;;;;;5052686;28;20226;-80
2021/11/09 07:04:03;;;;;;;21.77;14.30;;;9.80;1.00;;;;;;5063660;28;20471;-80
2021/11/09 07:06:30;;;;;;;21.05;14.50;;;9.80;1.00;;;;;;5060799;28;20220;-80
2021/11/09 07:08:57;;;;;;;18.48;13.40;;;9.80;1.00;;;;;;5062077;28;20314;-80
2021/11/09 07:11:26;;;;;;;17.50;12.80;;;9.80;1.00;;;;;;5070366;28;20220;-79
2021/11/09 07:13:53;;;;;;;20.20;13.00;;;9.70;1.00;;;;;;5056626;28;21007;-78
2021/11/09 07:16:22;;;;;;;21.80;15.00;;;9.70;1.00;;;;;;5060561;28;20460;-81
2021/11/09 07:18:54;;;;;;;19.40;12.40;;;9.70;1.00;;;;;;5053380;28;20471;-80
2021/11/09 07:21:21;;;;;;;15.63;11.90;;;9.80;1.00;;;;;;5062147;28;20453;-80
2021/11/09 07:23:47;;;;;;;15.33;12.37;;;9.80;1.00;;;;;;5052814;28;20464;-80
2021/11/09 07:26:14;;;;;;;20.37;12.83;;;9.70;1.00;;;;;;5055413;28;20420;-79
2021/11/09 07:28:41;;;;;;;19.90;13.20;;;9.70;1.00;;;;;;5056542;28;20628;-80
2021/11/09 07:31:09;;;;;;;23.75;14.85;;;9.60;1.00;;;;;;5049786;28;20957;-80
2021/11/09 07:33:37;;;;;;;17.57;12.27;;;9.70;1.00;;;;;;5052316;28;20282;-80
2021/11/09 07:36:04;;;;;;;19.23;12.17;;;9.70;1.00;;;;;;5051410;28;20502;-78
2021/11/09 07:38:31;;;;;;;18.13;13.60;;;9.70;1.00;;;;;;5045182;28;20477;-81
2021/11/09 07:40:59;;;;;;;17.43;12.73;;;9.70;1.00;;;;;;5057475;28;20467;-81
2021/11/09 07:43:26;;;;;;;19.00;12.53;;;9.70;1.00;;;;;;5045429;28;20483;-81
2021/11/09 07:45:52;;;;;;;20.27;12.17;;;9.70;1.00;;;;;;5056608;28;20570;-82
2021/11/09 07:48:19;;;;;;;21.43;13.97;;;9.70;1.00;;;;;;5062642;28;20550;-81
2021/11/09 07:50:47;;;;;;;26.20;14.43;;;9.70;1.00;;;;;;5057841;28;20526;-82
2021/11/09 07:53:16;;;;;;;19.53;13.70;;;9.70;1.00;;;;;;5063432;28;20459;-81
2021/11/09 07:55:48;;;;;;;25.20;14.00;;;9.80;1.00;;;;;;5039354;28;20476;-81
2021/11/09 07:58:18;;;;;;;17.33;12.13;;;9.90;1.00;;;;;;5050372;28;21875;-81
2021/11/09 08:00:48;;;;;;;17.00;13.27;;;9.90;1.00;;;;;;5046522;28;20479;-81
2021/11/09 08:03:18;;;;;;;19.67;12.90;;;9.80;1.00;;;;;;5055449;28;20465;-80
2021/11/09 08:06:01;;;;;;;15.85;12.43;;;9.80;1.00;;;;;;5062658;28;20231;-81
2021/11/09 08:08:29;;;;;;;19.37;12.03;;;9.80;1.00;;;;;;5054333;28;20233;-82
2021/11/09 08:10:56;;;;;;;18.47;14.40;;;9.80;1.00;;;;;;5048666;28;20521;-81
2021/11/09 08:13:23;;;;;;;19.30;13.40;;;9.90;1.00;;;;;;5045088;28;20466;-81
2021/11/09 08:15:49;;;;;;;17.43;12.60;;;10.00;1.00;;;;;;5047198;28;20450;-81
2021/11/09 08:18:16;;;;;;;17.57;13.67;;;9.90;1.00;;;;;;5048665;28;20463;-81
2021/11/09 08:20:43;;;;;;;20.07;13.27;;;9.80;1.00;;;;;;5048411;28;20517;-80
2021/11/09 08:23:12;;;;;;;18.20;13.67;;;9.70;1.00;;;;;;5043645;28;20881;-80
2021/11/09 08:25:39;;;;;;;18.90;12.67;;;9.80;1.00;;;;;;5050777;28;20517;-81
2021/11/09 08:28:06;;;;;;;17.60;14.43;;;9.70;1.00;;;;;;5050417;28;20415;-81
2021/11/09 08:30:34;;;;;;;15.57;13.43;;;9.70;1.00;;;;;;5051724;28;20444;-80
2021/11/09 08:33:03;;;;;;;22.93;15.00;;;9.60;1.00;;;;;;5048309;28;20463;-81
2021/11/09 08:35:31;;;;;;;19.13;14.47;;;9.60;1.00;;;;;;5049656;28;20459;-80
2021/11/09 08:37:57;;;;;;;16.87;13.20;;;9.70;1.00;;;;;;5045445;28;21286;-81
2021/11/09 08:40:25;;;;;;;19.33;14.47;;;9.70;1.00;;;;;;5049359;28;20478;-81
2021/11/09 08:42:55;;;;;;;16.63;14.20;;;9.70;1.00;;;;;;5049266;28;20466;-80
2021/11/09 08:45:32;;;;;;;20.33;15.30;;;9.80;1.00;;;;;;5052327;28;22430;-80
2021/11/09 08:48:06;;;;;;;20.07;13.30;;;9.80;1.00;;;;;;5052011;28;20436;-80
2021/11/09 08:50:36;;;;;;;18.57;14.40;;;9.80;1.00;;;;;;5051402;28;20485;-80
2021/11/09 08:53:07;;;;;;;18.80;14.17;;;9.80;1.00;;;;;;5054788;28;20463;-81
2021/11/09 08:55:52;;;;;;;19.30;12.43;;;9.70;1.00;;;;;;5054318;28;20448;-78
2021/11/09 08:58:38;;;;;;;19.60;12.77;;;9.70;1.00;;;;;;5053594;28;20428;-79
2021/11/09 09:04:15;;;;;;;19.80;14.07;;;9.80;1.00;;;;;;5049517;28;20456;-78
2021/11/09 09:06:43;;;;;;;15.95;13.50;;;9.90;1.00;;;;;;5046572;28;20522;-78
2021/11/09 09:09:10;;;;;;;19.77;14.10;;;10.10;1.00;;;;;;5047630;28;20225;-79
2021/11/09 09:11:38;;;;;;;22.27;13.87;;;10.20;1.00;;;;;;5047849;28;20554;-80
2021/11/09 09:14:05;;;;;;;18.50;12.40;;;10.20;1.00;;;;;;5046155;28;20428;-79
2021/11/09 09:16:34;;;;;;;15.43;12.10;;;10.30;1.00;;;;;;5049099;28;20461;-79
2021/11/09 09:19:01;;;;;;;13.10;11.60;;;10.30;1.00;;;;;;5051472;28;20496;-81
2021/11/09 09:21:33;;;;;;;16.27;12.73;;;10.40;1.00;;;;;;5054990;28;20460;-81
2021/11/09 09:24:06;;;;;;;14.63;12.50;;;10.50;1.00;;;;;;5044071;28;20466;-81
2021/11/09 09:26:37;;;;;;;16.43;12.00;;;10.50;1.00;;;;;;5046444;28;21913;-81
2021/11/09 09:29:15;;;;;;;18.70;13.20;;;10.70;1.00;;;;;;5044899;28;21291;-80
2021/11/09 09:31:58;;;;;;;17.37;12.97;;;10.80;1.00;;;;;;5041279;28;20470;-81
2021/11/09 09:54:02;;;;;;;13.67;12.17;;;12.40;1.00;;;;;;5043048;28;20456;-79
2021/11/09 09:56:39;;;;;;;12.43;10.37;;;12.60;1.00;;;;;;5044143;28;20452;-80
2021/11/09 09:59:07;;;;;;;17.57;12.07;;;12.90;1.00;;;;;;5051609;28;20952;-81
2021/11/09 10:01:35;;;;;;;14.33;10.93;;;13.00;1.00;;;;;;5049888;28;20543;-80
2021/11/09 10:04:02;;;;;;;13.40;10.50;;;13.10;1.00;;;;;;5046754;28;21361;-80
2021/11/09 10:06:42;;;;;;;14.07;11.73;;;13.20;1.00;;;;;;5051588;28;22156;-81
2021/11/09 10:09:10;;;;;;;19.13;10.83;;;13.30;1.00;;;;;;5054078;28;20416;-81
2021/11/09 10:11:39;;;;;;;17.90;11.90;;;13.40;1.00;;;;;;5056056;28;20476;-81
2021/11/09 10:14:08;;;;;;;14.60;11.23;;;13.90;1.00;;;;;;5049016;28;20464;-81
2021/11/09 10:16:38;;;;;;;14.27;10.67;;;14.60;1.00;;;;;;5052779;28;20467;-79
2021/11/09 10:19:06;;;;;;;13.03;10.57;;;14.70;1.00;;;;;;5044513;28;20450;-80
2021/11/09 10:21:38;;;;;;;14.83;10.50;;;14.50;1.00;;;;;;5046246;28;20423;-80
2021/11/09 10:24:23;;;;;;;15.87;9.97;;;14.70;1.00;;;;;;5043580;28;20456;-80
2021/11/09 10:26:50;;;;;;;14.03;10.13;;;14.30;1.00;;;;;;5055361;28;20896;-81
2021/11/09 10:29:18;;;;;;;15.83;10.50;;;14.20;1.00;;;;;;5064532;28;20448;-80
2021/11/09 10:31:47;;;;;;;14.63;9.73;;;14.30;1.00;;;;;;5045990;28;20448;-81
2021/11/09 10:34:25;;;;;;;13.57;11.07;;;14.70;1.00;;;;;;5045715;28;20473;-81
2021/11/09 10:37:14;;;;;;;14.90;11.73;;;15.00;1.00;;;;;;5051024;28;20475;-81
2021/11/09 10:39:40;;;;;;;12.40;9.80;;;15.00;1.00;;;;;;5051446;28;20522;-80
2021/11/09 10:42:09;;;;;;;15.07;10.20;;;15.00;1.00;;;;;;5047322;28;20420;-80
2021/11/09 10:44:37;;;;;;;16.87;10.10;;;15.50;1.00;;;;;;5053239;28;21660;-80
2021/11/09 10:47:17;;;;;;;10.90;9.57;;;15.70;1.00;;;;;;5052327;28;20956;-80
2021/11/09 10:49:54;;;;;;;14.20;8.73;;;15.30;1.00;;;;;;5049989;28;20572;-80
2021/11/09 10:52:27;;;;;;;10.13;8.07;;;15.30;1.00;;;;;;5047091;28;20452;-80
2021/11/09 10:54:59;;;;;;;12.17;8.40;;;14.90;1.00;;;;;;5052690;28;20426;-79
2021/11/09 10:57:35;;;;;;;12.10;8.30;;;14.60;1.00;;;;;;5052010;28;20444;-80
2021/11/09 11:00:17;;;;;;;11.40;7.57;;;14.40;1.00;;;;;;5057976;28;20554;-79
2021/11/09 11:05:30;;;;;;;12.73;8.30;;;13.80;1.00;;;;;;5056364;28;21382;-80
2021/11/09 11:07:58;;;;;;;12.17;8.77;;;13.80;1.00;;;;;;5063933;28;20457;-79
2021/11/09 11:10:32;;;;;;;9.00;7.20;;;13.70;1.00;;;;;;5059348;28;20417;-80
2021/11/09 11:13:19;;;;;;;7.93;5.30;;;13.60;1.00;;;;;;5063045;28;20439;-80
2021/11/09 11:16:05;;;;;;;6.80;4.43;;;13.40;1.00;;;;;;5060783;28;20447;-79
2021/11/09 11:18:36;;;;;;;10.07;5.60;;;13.30;1.00;;;;;;5061403;28;20448;-80
2021/11/09 11:21:02;;;;;;;6.80;5.20;;;13.80;1.00;;;;;;5060752;28;20463;-78
2021/11/09 11:23:30;;;;;;;12.33;5.40;;;14.80;1.00;;;;;;5064052;28;20472;-79
2021/11/09 11:25:58;;;;;;;5.60;4.23;;;15.10;1.00;;;;;;5069724;28;20408;-78
2021/11/09 11:28:26;;;;;;;8.93;5.20;;;15.40;1.00;;;;;;5068757;28;20432;-78
2021/11/09 11:30:53;;;;;;;7.97;5.23;;;15.80;1.00;;;;;;5061733;28;20463;-79
2021/11/09 11:33:21;;;;;;;8.93;4.93;;;15.90;1.00;;;;;;5066604;28;20529;-79
2021/11/09 11:35:49;;;;;;;7.60;4.87;;;15.80;1.00;;;;;;5060268;28;20462;-79
2021/11/09 11:38:18;;;;;;;6.50;4.67;;;15.70;1.00;;;;;;5063925;28;20536;-79
2021/11/09 11:40:45;;;;;;;14.10;5.10;;;15.50;1.00;;;;;;5060518;28;20451;-78
2021/11/09 11:43:12;;;;;;;13.40;8.43;;;15.50;1.00;;;;;;5050726;28;20452;-80
2021/11/09 11:45:50;;;;;;;11.33;6.90;;;15.40;1.00;;;;;;5062468;28;20965;-79
2021/11/09 11:48:17;;;;;;;9.43;5.23;;;15.50;1.00;;;;;;5046480;28;20472;-80
2021/11/09 11:50:44;;;;;;;7.53;3.73;;;15.30;1.00;;;;;;5050062;28;20439;-80
2021/11/09 11:53:13;;;;;;;6.53;3.90;;;14.90;1.00;;;;;;5049270;28;20486;-83
2021/11/09 11:55:40;;;;;;;5.30;3.97;;;14.80;1.00;;;;;;5052124;28;20555;-80
2021/11/09 11:58:09;;;;;;;7.23;4.43;;;14.50;1.00;;;;;;5056806;28;20472;-81
2021/11/09 12:00:56;;;;;;;6.80;4.30;;;14.30;1.00;;;;;;5050678;28;21639;-79
2021/11/09 12:03:40;;;;;;;9.23;4.13;;;14.00;1.00;;;;;;5054570;28;20455;-81
2021/11/09 12:06:25;;;;;;;6.93;3.00;;;13.80;1.00;;;;;;5047985;28;20459;-80
2021/11/09 12:08:55;;;;;;;12.43;4.80;;;13.70;1.00;;;;;;5053687;28;20439;-80
2021/11/09 12:11:40;;;;;;;10.33;4.40;;;13.50;1.00;;;;;;5055516;28;20710;-80
2021/11/09 12:14:09;;;;;;;6.90;3.90;;;13.40;1.00;;;;;;5057402;28;20447;-80
2021/11/09 12:16:52;;;;;;;5.33;4.00;;;13.40;1.00;;;;;;5071248;28;20459;-81
2021/11/09 12:19:55;;;;;;;7.63;4.77;;;13.30;1.00;;;;;;5056447;28;20439;-80
2021/11/09 12:22:26;;;;;;;5.87;3.73;;;13.20;1.00;;;;;;5049825;28;20431;-81
2021/11/09 12:24:57;;;;;;;9.97;3.97;;;13.10;1.00;;;;;;5054227;28;20445;-80
2021/11/09 12:27:29;;;;;;;3.87;2.80;;;13.10;1.00;;;;;;5051756;28;20452;-79
2021/11/09 12:29:57;;;;;;;5.40;2.80;;;13.10;1.00;;;;;;5055306;28;20452;-79
2021/11/09 12:32:42;;;;;;;7.23;3.00;;;13.10;1.00;;;;;;5054085;28;20438;-80
2021/11/09 12:35:23;;;;;;;7.50;3.93;;;13.10;1.00;;;;;;5051778;28;20499;-80
2021/11/09 12:38:13;;;;;;;7.77;3.40;;;12.90;1.00;;;;;;5052450;28;20432;-80
2021/11/09 12:40:50;;;;;;;5.33;3.30;;;13.00;1.00;;;;;;5058498;28;20550;-80
2021/11/09 12:43:23;;;;;;;8.40;3.20;;;13.00;1.00;;;;;;5054954;28;20452;-80
2021/11/09 12:45:53;;;;;;;7.13;3.40;;;13.00;1.00;;;;;;5057162;28;21036;-80
2021/11/09 12:48:26;;;;;;;6.20;3.30;;;13.10;1.00;;;;;;5069304;28;20439;-80
2021/11/09 12:50:56;;;;;;;7.53;4.40;;;13.10;1.00;;;;;;5075327;28;20455;-81
2021/11/09 12:53:25;;;;;;;4.87;2.63;;;13.20;1.00;;;;;;5058846;28;21621;-80
2021/11/09 12:56:02;;;;;;;7.33;3.10;;;13.30;1.00;;;;;;5056565;28;20481;-80
2021/11/09 12:58:36;;;;;;;5.93;3.90;;;13.20;1.00;;;;;;5052981;28;20516;-81
2021/11/09 13:04:09;;;;;;;7.00;3.40;;;13.00;1.00;;;;;;5034190;28;20439;-78
2021/11/09 13:06:42;;;;;;;9.50;3.40;;;13.00;1.00;;;;;;5055797;28;20468;-80
2021/11/09 13:09:16;;;;;;;6.10;3.40;;;13.00;1.00;;;;;;5044692;28;20440;-82
2021/11/09 13:11:48;;;;;;;7.03;4.00;;;12.90;1.00;;;;;;5047653;28;20546;-80
2021/11/09 13:14:15;;;;;;;12.23;4.23;;;13.00;1.00;;;;;;5049288;28;20428;-77
2021/11/09 13:16:43;;;;;;;10.00;4.30;;;13.10;1.00;;;;;;5049046;28;20416;-77
2021/11/09 13:19:10;;;;;;;8.20;3.73;;;13.10;1.00;;;;;;5050200;28;20459;-78
2021/11/09 13:21:38;;;;;;;9.40;3.33;;;13.30;1.00;;;;;;5046130;28;20447;-78
2021/11/09 13:24:08;;;;;;;6.53;2.70;;;13.40;1.00;;;;;;5043723;28;20467;-77
2021/11/09 13:26:35;;;;;;;8.27;2.83;;;13.50;1.00;;;;;;5040730;28;20451;-79
2021/11/09 13:29:08;;;;;;;10.30;3.20;;;13.90;1.00;;;;;;5050208;28;20457;-80
2021/11/09 13:31:35;;;;;;;3.50;2.30;;;14.10;1.00;;;;;;5052423;28;20495;-82
2021/11/09 13:34:04;;;;;;;2.93;1.97;;;13.80;1.00;;;;;;5047017;28;21413;-77
2021/11/09 13:36:31;;;;;;;10.17;4.13;;;13.70;1.00;;;;;;5042477;28;20486;-76
2021/11/09 13:38:58;;;;;;;5.67;2.30;;;13.50;1.00;;;;;;5049771;28;20456;-76
2021/11/09 13:41:30;;;;;;;14.50;4.70;;;13.20;1.00;;;;;;5059339;28;20498;-76
2021/11/09 13:44:02;;;;;;;11.40;3.47;;;13.10;1.00;;;;;;5049575;28;20510;-77
2021/11/09 13:46:32;;;;;;;3.57;2.07;;;13.00;1.00;;;;;;5066505;28;20875;-76
2021/11/09 13:49:00;;;;;;;5.87;3.10;;;12.90;1.00;;;;;;5067066;28;20464;-77
2021/11/09 13:51:30;;;;;;;7.33;3.53;;;12.90;1.00;;;;;;5064346;28;21599;-76
2021/11/09 13:54:00;;;;;;;6.53;2.07;;;12.80;1.00;;;;;;5053013;28;20408;-75
2021/11/09 13:56:28;;;;;;;4.57;1.80;;;12.70;1.00;;;;;;5051361;28;20432;-77
2021/11/09 13:58:57;;;;;;;5.83;2.57;;;12.60;1.00;;;;;;5050616;28;20424;-77
2021/11/09 14:01:38;;;;;;;5.40;2.70;;;12.50;1.00;;;;;;5052134;28;20471;-77
2021/11/09 14:04:13;;;;;;;5.00;2.27;;;12.30;1.00;;;;;;5059095;28;20424;-78
2021/11/09 14:09:55;;;;;;;9.93;3.23;;;12.20;1.00;;;;;;5057008;28;20421;-78
2021/11/09 14:12:44;;;;;;;4.90;3.33;;;12.20;1.00;;;;;;5058575;28;20456;-78
2021/11/09 14:15:26;;;;;;;9.60;3.80;;;12.40;1.00;;;;;;5057086;28;20466;-79
2021/11/09 14:17:54;;;;;;;9.20;3.00;;;12.50;1.00;;;;;;5053514;28;20464;-77
2021/11/09 14:20:24;;;;;;;6.17;3.10;;;12.60;1.00;;;;;;5056468;28;20545;-79
2021/11/09 14:23:01;;;;;;;5.07;3.03;;;12.80;1.00;;;;;;5058105;28;21237;-77
2021/11/09 14:25:29;;;;;;;5.83;3.03;;;12.90;1.00;;;;;;5055663;28;20456;-77
2021/11/09 14:27:56;;;;;;;5.63;2.60;;;13.00;1.00;;;;;;5055018;28;20440;-78
2021/11/09 14:30:25;;;;;;;4.23;2.80;;;13.00;1.00;;;;;;5061531;28;20455;-78
2021/11/09 14:33:05;;;;;;;5.40;3.23;;;12.80;1.00;;;;;;5054391;28;20757;-78